Time;durP1;ratioP1;P1;durP2;ratioP2;P2;SDS_P1;SDS_P2;PMS_P1;PMS_P2;Temp;Humidity;BMP_temperature;BMP_pressure;BME280_temperature;BME280_humidity;BME280_pressure;Samples;Min_cycle;Max_cycle;Signal;HPM_P1;HPM_P2
2023/05/29 00:00:52;;;;;;;5.70;3.13;;;;;;;20.28;38.16;102126.13;16116019;19;130986;-48
2023/05/29 00:06:14;;;;;;;6.70;2.83;;;;;;;20.27;38.14;102127.19;16113998;19;131278;-45
2023/05/29 00:11:36;;;;;;;6.47;2.90;;;;;;;20.25;37.94;102130.22;16116124;19;130182;-46
2023/05/29 00:16:57;;;;;;;4.50;2.70;;;;;;;20.24;38.05;102138.78;16116386;19;129664;-47
2023/05/29 00:22:20;;;;;;;8.07;2.95;;;;;;;20.23;38.27;102149.03;16114881;19;130047;-49
2023/05/29 00:27:42;;;;;;;6.18;2.65;;;;;;;20.22;38.17;102140.94;16117808;19;131254;-44
2023/05/29 00:33:04;;;;;;;7.43;2.90;;;;;;;20.21;38.23;102139.25;16109539;19;129976;-44
2023/05/29 00:38:26;;;;;;;7.30;2.85;;;;;;;20.20;38.34;102152.28;16115786;19;129673;-45
2023/05/29 00:43:47;;;;;;;5.20;2.50;;;;;;;20.18;38.11;102151.66;16110004;19;130694;-46
2023/05/29 00:49:11;;;;;;;4.85;2.53;;;;;;;20.17;38.03;102163.88;16116763;19;131990;-46
2023/05/29 00:54:34;;;;;;;5.28;2.60;;;;;;;20.16;38.15;102169.63;16116983;19;130376;-48
2023/05/29 00:59:57;;;;;;;5.50;2.40;;;;;;;20.14;38.06;102169.88;16116483;19;131206;-45
2023/05/29 01:05:19;;;;;;;4.63;2.53;;;;;;;20.13;38.36;102173.72;16110770;19;129410;-43
2023/05/29 01:10:44;;;;;;;5.40;2.45;;;;;;;20.12;38.12;102174.78;16113100;19;130810;-45
2023/05/29 01:16:17;;;;;;;5.78;2.60;;;;;;;20.11;38.13;102173.97;16110379;19;129767;-46
2023/05/29 01:22:08;;;;;;;7.20;2.75;;;;;;;20.11;38.19;102178.66;16109578;19;132654;-46
2023/05/29 01:27:32;;;;;;;5.82;2.60;;;;;;;20.09;38.16;102189.13;16117729;19;131890;-44
2023/05/29 01:32:54;;;;;;;5.80;2.67;;;;;;;20.07;38.50;102194.06;16114791;19;131617;-44
2023/05/29 01:38:16;;;;;;;5.90;2.50;;;;;;;20.06;38.19;102192.38;16116417;19;130244;-46
2023/05/29 01:43:39;;;;;;;7.82;2.58;;;;;;;20.07;38.23;102200.47;16111491;19;130195;-44
2023/05/29 01:49:00;;;;;;;8.07;2.28;;;;;;;20.06;38.33;102196.00;16103392;19;130727;-46
2023/05/29 01:54:23;;;;;;;8.02;2.45;;;;;;;20.06;38.29;102192.38;16110622;19;129585;-46
2023/05/29 01:59:45;;;;;;;4.50;2.30;;;;;;;20.05;38.18;102196.22;16109091;19;130209;-48
2023/05/29 02:05:10;;;;;;;7.13;2.55;;;;;;;20.05;38.21;102201.78;16108495;19;129339;-43
2023/05/29 02:10:32;;;;;;;6.53;2.50;;;;;;;20.02;38.10;102207.78;16103500;19;130919;-46
2023/05/29 02:15:54;;;;;;;10.13;2.85;;;;;;;20.01;37.64;102194.97;16113493;19;131212;-47
2023/05/29 02:21:16;;;;;;;6.90;2.70;;;;;;;19.99;37.84;102190.47;16109229;19;130038;-43
2023/05/29 02:26:38;;;;;;;5.30;2.47;;;;;;;20.00;37.64;102199.66;16111685;19;129657;-47
2023/05/29 02:32:00;;;;;;;6.85;2.17;;;;;;;19.99;37.75;102197.94;16110512;19;132375;-45
2023/05/29 02:37:25;;;;;;;7.00;2.35;;;;;;;19.97;37.48;102197.31;16122574;19;131081;-47
2023/05/29 02:42:47;;;;;;;7.10;2.13;;;;;;;19.97;37.45;102200.94;16125887;19;130226;-47
2023/05/29 02:48:09;;;;;;;6.95;2.17;;;;;;;19.95;37.44;102199.47;16129475;19;129267;-48
2023/05/29 02:53:31;;;;;;;6.93;2.22;;;;;;;19.94;37.72;102190.25;16123694;19;129701;-45
2023/05/29 02:58:53;;;;;;;6.45;2.50;;;;;;;19.93;37.31;102196.06;16126334;19;129997;-46
2023/05/29 03:04:17;;;;;;;7.70;2.17;;;;;;;19.92;37.55;102195.22;16123090;19;130962;-44
2023/05/29 03:09:39;;;;;;;5.25;2.15;;;;;;;19.91;37.45;102200.97;16119472;19;129991;-49
2023/05/29 03:15:01;;;;;;;7.15;2.47;;;;;;;19.89;37.55;102203.13;16124026;19;130382;-47
2023/05/29 03:20:23;;;;;;;6.13;2.25;;;;;;;19.89;37.11;102206.78;16121275;19;130491;-45
2023/05/29 03:25:45;;;;;;;7.53;2.03;;;;;;;19.86;37.01;102211.94;16122142;19;134741;-46
2023/05/29 03:31:08;;;;;;;8.15;2.03;;;;;;;19.84;37.14;102215.78;16120218;19;129942;-46
2023/05/29 03:36:31;;;;;;;7.65;1.92;;;;;;;19.83;37.13;102216.84;16117454;19;132363;-49
2023/05/29 03:41:53;;;;;;;6.95;2.05;;;;;;;19.83;37.38;102227.09;16117328;19;131274;-47
2023/05/29 03:47:15;;;;;;;6.47;2.33;;;;;;;19.82;37.14;102225.38;16119379;19;131327;-47
2023/05/29 03:52:37;;;;;;;7.72;2.35;;;;;;;19.80;36.86;102228.38;16117883;19;129688;-44
2023/05/29 03:57:59;;;;;;;7.00;2.35;;;;;;;19.79;37.11;102232.25;16116066;19;130133;-47
2023/05/29 04:03:21;;;;;;;7.82;2.22;;;;;;;19.77;36.87;102239.94;16116902;19;131243;-46
2023/05/29 04:08:43;;;;;;;6.93;1.75;;;;;;;19.77;37.12;102251.03;16120669;19;128977;-48
2023/05/29 04:14:05;;;;;;;9.38;2.00;;;;;;;19.75;37.20;102257.91;16118763;19;131156;-48
2023/05/29 04:19:27;;;;;;;6.75;1.92;;;;;;;19.75;36.88;102252.34;16119164;19;129478;-48
2023/05/29 04:24:49;;;;;;;9.13;2.30;;;;;;;19.74;36.65;102256.19;16118259;19;129910;-48
2023/05/29 04:30:11;;;;;;;6.97;2.10;;;;;;;19.74;36.89;102261.75;16115512;19;131015;-45
2023/05/29 04:35:33;;;;;;;4.95;2.03;;;;;;;19.71;36.65;102259.41;16116232;19;129400;-45
2023/05/29 04:40:58;;;;;;;7.40;2.15;;;;;;;19.71;36.93;102273.28;16112195;19;132407;-47
2023/05/29 04:46:20;;;;;;;7.47;2.22;;;;;;;19.68;36.59;102283.78;16112623;19;129678;-48
2023/05/29 04:51:42;;;;;;;7.93;2.65;;;;;;;19.67;36.69;102290.41;16112979;19;129824;-47
2023/05/29 04:57:04;;;;;;;10.88;2.92;;;;;;;19.66;36.92;102288.69;16115810;19;129196;-47
2023/05/29 05:02:26;;;;;;;9.88;2.70;;;;;;;19.65;36.47;102291.69;16113510;19;130459;-51
2023/05/29 05:07:48;;;;;;;7.43;2.65;;;;;;;19.65;36.98;102294.47;16114112;19;129835;-48
2023/05/29 05:13:11;;;;;;;6.32;2.00;;;;;;;19.64;36.92;102298.31;16112198;19;129944;-50
2023/05/29 05:18:32;;;;;;;6.60;2.00;;;;;;;19.63;36.54;102303.03;16111941;19;130090;-49
2023/05/29 05:23:54;;;;;;;6.22;2.17;;;;;;;19.63;36.84;102293.84;16111442;19;130636;-45
2023/05/29 05:29:19;;;;;;;9.30;2.43;;;;;;;19.61;36.89;102296.81;16115058;19;129868;-49
2023/05/29 05:34:41;;;;;;;9.35;2.30;;;;;;;19.62;36.43;102301.31;16110485;19;129241;-46
2023/05/29 05:40:06;;;;;;;6.68;2.10;;;;;;;19.62;36.87;102309.63;16113498;19;131864;-49
2023/05/29 05:45:28;;;;;;;6.73;1.90;;;;;;;19.62;36.85;102320.75;16114740;19;130096;-46
2023/05/29 05:50:50;;;;;;;10.07;2.35;;;;;;;19.61;36.40;102313.47;16105856;19;130168;-50
2023/05/29 05:56:12;;;;;;;8.00;1.98;;;;;;;19.61;36.65;102319.03;16111282;19;129892;-46
2023/05/29 06:01:34;;;;;;;8.50;2.28;;;;;;;19.62;36.55;102311.56;16109342;19;129869;-46
2023/05/29 06:06:56;;;;;;;10.02;2.55;;;;;;;19.62;36.60;102325.47;16108880;19;129840;-47
2023/05/29 06:12:17;;;;;;;7.95;2.25;;;;;;;19.61;36.63;102330.13;16106375;19;130605;-44
2023/05/29 06:17:39;;;;;;;9.48;2.55;;;;;;;19.60;36.84;102333.97;16105289;19;130566;-49
2023/05/29 06:23:02;;;;;;;6.55;2.35;;;;;;;19.60;36.37;102338.69;16107169;19;131251;-48
2023/05/29 06:28:24;;;;;;;6.75;1.92;;;;;;;19.61;36.54;102345.97;16103528;19;129645;-51
2023/05/29 06:33:46;;;;;;;6.65;2.08;;;;;;;19.62;36.33;102333.78;16107135;19;130812;-49
2023/05/29 06:39:08;;;;;;;6.45;1.90;;;;;;;19.73;36.19;102348.91;16104542;19;129277;-47
2023/05/29 06:44:30;;;;;;;9.63;2.53;;;;;;;19.86;36.36;102348.84;16106423;19;134299;-52
2023/05/29 06:49:52;;;;;;;17.65;2.75;;;;;;;20.02;35.91;102352.22;16104519;19;129931;-46
2023/05/29 06:55:14;;;;;;;15.02;2.83;;;;;;;20.12;36.03;102349.81;16107093;19;130841;-45
2023/05/29 07:00:36;;;;;;;16.98;2.53;;;;;;;20.18;35.83;102348.94;16107846;19;131170;-46
2023/05/29 07:05:58;;;;;;;9.20;2.78;;;;;;;20.25;35.79;102360.88;16103217;19;129587;-48
2023/05/29 07:11:20;;;;;;;11.73;2.33;;;;;;;20.27;35.51;102349.53;16103258;19;129685;-46
2023/05/29 07:16:42;;;;;;;11.43;1.98;;;;;;;20.35;35.77;102356.75;16106600;19;131220;-47
2023/05/29 07:22:04;;;;;;;8.07;1.85;;;;;;;20.38;35.34;102367.41;16116362;19;131058;-45
2023/05/29 07:27:26;;;;;;;8.57;2.50;;;;;;;20.43;35.50;102362.06;16123322;19;129531;-49
2023/05/29 07:32:48;;;;;;;12.93;2.55;;;;;;;20.47;35.52;102360.50;16121732;19;129524;-43
2023/05/29 07:38:10;;;;;;;7.15;1.98;;;;;;;20.52;35.60;102360.72;16119335;19;130850;-47
2023/05/29 07:43:32;;;;;;;11.35;2.75;;;;;;;20.53;35.05;102359.63;16125464;19;129688;-45
2023/05/29 07:48:53;;;;;;;6.05;1.48;;;;;;;20.55;35.40;102362.19;16122686;19;129633;-48
2023/05/29 07:54:20;;;;;;;8.40;1.88;;;;;;;20.63;34.96;102358.28;16123152;19;129917;-47
2023/05/29 07:59:42;;;;;;;7.57;2.17;;;;;;;20.66;34.67;102355.06;16121902;19;129968;-48
2023/05/29 08:05:04;;;;;;;10.25;2.83;;;;;;;20.72;34.64;102356.91;16122016;19;130097;-47
2023/05/29 08:10:26;;;;;;;8.18;2.10;;;;;;;20.75;34.81;102353.69;16119310;19;129411;-48
2023/05/29 08:15:48;;;;;;;8.07;2.38;;;;;;;20.72;34.55;102355.00;16119733;19;129876;-47
2023/05/29 08:21:11;;;;;;;14.90;2.42;;;;;;;20.77;34.83;102354.34;16116695;19;130253;-44
2023/05/29 08:26:33;;;;;;;9.70;2.47;;;;;;;20.77;34.38;102365.47;16113255;19;130071;-48
2023/05/29 08:31:55;;;;;;;8.80;2.80;;;;;;;20.80;34.79;102370.56;16113083;19;130352;-47
2023/05/29 08:37:17;;;;;;;10.35;2.65;;;;;;;20.81;34.43;102360.31;16115816;19;130464;-45
2023/05/29 08:43:11;;;;;;;9.38;2.45;;;;;;;20.78;34.03;102364.41;16112988;19;131292;-48
2023/05/29 08:48:39;;;;;;;21.58;8.63;;;;;;;20.77;34.01;102367.38;16113614;19;130687;-45
2023/05/29 08:54:02;;;;;;;31.40;9.93;;;;;;;20.80;34.01;102370.56;16119067;19;130979;-46
2023/05/29 08:59:25;;;;;;;23.33;7.97;;;;;;;20.84;34.49;102369.03;16111100;19;130021;-44
2023/05/29 09:04:53;;;;;;;29.88;11.70;;;;;;;20.87;34.97;102371.38;16111047;19;129761;-47
2023/05/29 09:10:15;;;;;;;25.50;9.77;;;;;;;20.88;34.95;102381.44;16111305;19;130972;-48
2023/05/29 09:15:42;;;;;;;32.88;7.93;;;;;;;20.92;34.99;102376.25;16113614;19;131448;-50
2023/05/29 09:21:10;;;;;;;26.60;6.85;;;;;;;20.94;34.46;102379.66;16114275;19;135022;-46
2023/05/29 09:26:32;;;;;;;23.45;5.05;;;;;;;20.92;34.67;102384.59;16110655;19;130267;-47
2023/05/29 09:31:56;;;;;;;17.30;4.13;;;;;;;20.95;34.12;102388.84;16113096;19;130068;-45
2023/05/29 09:37:21;;;;;;;13.90;3.70;;;;;;;20.90;34.07;102387.63;16106362;19;131236;-43
2023/05/29 09:42:43;;;;;;;13.10;3.55;;;;;;;20.84;33.92;102376.56;16113226;19;130728;-45
2023/05/29 09:48:13;;;;;;;20.88;4.18;;;;;;;20.83;33.25;102374.84;16111296;19;132948;-48
2023/05/29 09:53:42;;;;;;;13.35;3.47;;;;;;;20.78;33.52;102371.88;16110854;19;129824;-45
2023/05/29 09:59:05;;;;;;;12.57;2.90;;;;;;;20.73;33.44;102373.41;16107457;19;130591;-46
2023/05/29 10:04:27;;;;;;;9.43;2.55;;;;;;;20.70;33.26;102392.44;16112123;19;131267;-44
2023/05/29 10:09:53;;;;;;;9.15;2.38;;;;;;;20.71;33.29;102380.25;16113109;19;130343;-45
2023/05/29 10:15:18;;;;;;;12.30;2.20;;;;;;;20.66;33.20;102378.13;16111381;19;129345;-47
2023/05/29 10:20:44;;;;;;;11.13;2.85;;;;;;;20.63;33.21;102363.84;16110704;19;129826;-46
2023/05/29 10:26:18;;;;;;;12.52;2.45;;;;;;;20.67;33.59;102376.22;16110662;19;130033;-44
2023/05/29 10:32:12;;;;;;;13.55;2.47;;;;;;;20.64;33.33;102362.75;16107745;19;129453;-47
2023/05/29 10:37:50;;;;;;;7.57;2.00;;;;;;;20.65;33.43;102356.13;16110916;19;131275;-46
2023/05/29 10:43:33;;;;;;;12.00;2.60;;;;;;;20.62;33.15;102357.41;16109183;19;129535;-47
2023/05/29 10:48:55;;;;;;;8.55;2.47;;;;;;;20.64;32.93;102363.59;16109792;19;129074;-44
2023/05/29 10:54:26;;;;;;;6.95;2.10;;;;;;;20.68;33.23;102355.66;16114147;19;130749;-45
2023/05/29 10:59:48;;;;;;;10.02;2.67;;;;;;;20.67;32.80;102357.59;16120578;19;130910;-45
2023/05/29 11:05:24;;;;;;;7.90;2.08;;;;;;;20.68;32.80;102350.09;16108488;19;130901;-47
2023/05/29 11:10:52;;;;;;;11.15;2.40;;;;;;;20.68;32.85;102355.66;16102819;19;130690;-49
2023/05/29 11:16:36;;;;;;;8.57;2.33;;;;;;;20.67;33.16;102349.25;16103072;19;129807;-48
2023/05/29 11:22:16;;;;;;;6.63;1.98;;;;;;;20.71;32.68;102350.50;16105238;19;131319;-44
2023/05/29 11:27:38;;;;;;;10.02;2.10;;;;;;;20.71;33.17;102341.31;16101738;19;129712;-46
2023/05/29 11:33:05;;;;;;;8.80;2.20;;;;;;;20.70;33.06;102329.34;16100140;19;129908;-48
2023/05/29 11:38:30;;;;;;;10.68;2.17;;;;;;;20.70;32.93;102336.81;16105427;19;129835;-44
2023/05/29 11:43:59;;;;;;;;;;;;;;;20.67;33.05;102328.94;16096433;19;132600;-45
2023/05/29 11:49:47;;;;;;;8.30;2.38;;;;;;;20.68;32.97;102333.41;16102395;19;131010;-43
2023/05/29 11:55:09;;;;;;;8.80;2.10;;;;;;;20.66;33.27;102330.03;16102492;19;129672;-43
2023/05/29 12:00:34;;;;;;;10.80;2.45;;;;;;;20.69;33.14;102324.00;16103314;19;131118;-43
2023/05/29 12:05:56;;;;;;;11.52;3.15;;;;;;;20.70;33.00;102322.91;16099702;19;130944;-44
2023/05/29 12:11:23;;;;;;;22.98;5.95;;;;;;;20.78;33.95;102333.81;16100200;19;130778;-45
2023/05/29 12:16:45;;;;;;;17.88;4.85;;;;;;;20.85;34.35;102333.75;16100833;19;131958;-48
2023/05/29 12:22:07;;;;;;;46.33;7.22;;;;;;;20.89;33.60;102319.16;16094496;19;130217;-47
2023/05/29 12:27:29;;;;;;;30.23;5.45;;;;;;;20.89;34.05;102319.16;16098096;19;130071;-45
2023/05/29 12:32:53;;;;;;;15.45;3.58;;;;;;;20.94;33.93;102309.25;16097524;19;129999;-45
2023/05/29 12:38:19;;;;;;;24.05;4.32;;;;;;;20.98;33.58;102316.06;16097277;19;131512;-46
2023/05/29 12:43:41;;;;;;;16.33;5.13;;;;;;;21.00;33.57;102319.50;16095859;19;130059;-45
2023/05/29 12:49:16;;;;;;;20.17;5.47;;;;;;;21.04;33.88;102326.31;16101171;19;131766;-43
2023/05/29 12:54:39;;;;;;;17.15;4.75;;;;;;;21.02;33.80;102326.50;16097242;19;132028;-43
2023/05/29 13:00:01;;;;;;;33.85;12.57;;;;;;;21.05;33.91;102327.97;16096722;19;131807;-44
2023/05/29 13:05:23;;;;;;;25.45;7.63;;;;;;;21.06;33.52;102329.69;16099144;19;129954;-44
2023/05/29 13:10:45;;;;;;;22.55;7.28;;;;;;;21.09;33.58;102326.44;16096824;19;135018;-46
2023/05/29 13:16:07;;;;;;;20.85;6.50;;;;;;;21.09;33.78;102323.66;16094267;19;130079;-47
2023/05/29 13:21:29;;;;;;;16.40;6.53;;;;;;;21.09;33.31;102326.44;16098190;19;130823;-46
2023/05/29 13:26:51;;;;;;;14.68;5.05;;;;;;;21.11;33.36;102332.66;16095621;19;131170;-48
2023/05/29 13:32:13;;;;;;;14.15;5.10;;;;;;;21.11;33.53;102329.84;16097192;19;131177;-47
2023/05/29 13:37:36;;;;;;;15.60;4.28;;;;;;;21.10;33.58;102314.25;16095996;19;130067;-42
2023/05/29 13:42:58;;;;;;;9.18;3.85;;;;;;;21.09;33.53;102306.97;16093984;19;129572;-45
2023/05/29 13:48:20;;;;;;;11.75;3.72;;;;;;;21.11;33.82;102323.47;16092905;19;130803;-45
2023/05/29 13:53:42;;;;;;;10.85;3.92;;;;;;;21.12;33.66;102311.22;16096439;19;130641;-46
2023/05/29 13:59:05;;;;;;;8.80;3.65;;;;;;;21.12;33.75;102303.75;16093743;19;130457;-45
2023/05/29 14:04:29;;;;;;;8.60;3.45;;;;;;;21.14;33.25;102320.19;16092177;19;131075;-45
2023/05/29 14:09:51;;;;;;;8.43;2.95;;;;;;;21.13;33.63;102313.78;16089573;19;131287;-44
2023/05/29 14:15:13;;;;;;;11.75;2.78;;;;;;;21.11;33.53;102318.72;16085792;19;130600;-45
2023/05/29 14:20:35;;;;;;;9.63;2.78;;;;;;;21.12;33.31;102323.22;16089834;19;131549;-45
2023/05/29 14:25:57;;;;;;;14.20;3.13;;;;;;;21.13;33.55;102327.72;16090880;19;129303;-44
2023/05/29 14:31:19;;;;;;;10.13;2.78;;;;;;;21.14;33.53;102314.63;16084747;19;130468;-44
2023/05/29 14:36:44;;;;;;;9.35;3.03;;;;;;;21.14;33.45;102314.63;16088873;19;131204;-43
2023/05/29 14:42:07;;;;;;;8.53;2.80;;;;;;;21.12;33.49;102316.78;16088762;19;129593;-45
2023/05/29 14:47:29;;;;;;;12.27;2.80;;;;;;;21.13;33.74;102322.13;16090794;19;130142;-45
2023/05/29 14:52:51;;;;;;;6.40;2.00;;;;;;;21.13;33.49;102313.78;16090111;19;129751;-43
2023/05/29 14:58:14;;;;;;;7.78;2.35;;;;;;;21.15;33.20;102316.34;16088762;19;129731;-47
2023/05/29 15:03:36;;;;;;;6.05;2.03;;;;;;;21.16;33.69;102326.38;16091419;19;130910;-44
2023/05/29 15:09:00;;;;;;;8.60;2.30;;;;;;;21.15;33.32;102316.34;16090947;19;129888;-43
2023/05/29 15:14:23;;;;;;;8.18;2.28;;;;;;;21.13;33.07;102311.00;16086178;19;129875;-42
2023/05/29 15:19:45;;;;;;;6.80;2.20;;;;;;;21.11;33.09;102307.59;16089061;19;131063;-45
2023/05/29 15:25:07;;;;;;;7.65;2.50;;;;;;;21.11;33.47;102301.19;16082647;19;130031;-43
2023/05/29 15:30:29;;;;;;;6.28;2.10;;;;;;;21.11;32.96;102304.81;16087554;19;130058;-43
2023/05/29 15:35:51;;;;;;;6.68;2.30;;;;;;;21.11;33.06;102298.41;16084339;19;132081;-43
2023/05/29 15:41:14;;;;;;;9.13;2.15;;;;;;;21.08;33.22;102299.72;16094462;19;129991;-44
2023/05/29 15:46:36;;;;;;;9.38;2.38;;;;;;;21.06;33.12;102301.84;16105401;19;130968;-52
2023/05/29 15:51:58;;;;;;;10.38;2.38;;;;;;;21.01;32.67;102299.78;16102476;19;130227;-45
2023/05/29 15:57:20;;;;;;;11.68;2.30;;;;;;;20.98;32.41;102304.94;16109925;19;129839;-46
2023/05/29 16:02:42;;;;;;;8.18;2.50;;;;;;;20.96;32.43;102295.97;16099365;19;130426;-43
2023/05/29 16:08:04;;;;;;;8.13;2.13;;;;;;;20.94;32.58;102299.00;16106363;19;129237;-43
2023/05/29 16:13:27;;;;;;;7.85;2.17;;;;;;;20.93;32.55;102290.84;16108226;19;130945;-46
2023/05/29 16:18:49;;;;;;;6.75;1.85;;;;;;;20.92;32.63;102291.97;16098656;19;132748;-45
2023/05/29 16:24:11;;;;;;;7.82;2.20;;;;;;;20.89;32.68;102285.78;16103008;19;129901;-47
2023/05/29 16:29:33;;;;;;;7.60;2.10;;;;;;;20.89;32.38;102296.91;16100834;19;130629;-44
2023/05/29 16:34:56;;;;;;;5.35;2.10;;;;;;;20.87;32.69;102300.97;16099239;19;129802;-44
2023/05/29 16:40:20;;;;;;;7.80;2.47;;;;;;;20.86;32.43;102300.13;16098118;19;131212;-45
2023/05/29 16:45:42;;;;;;;7.75;2.17;;;;;;;20.85;32.63;102297.59;16099215;19;129209;-45
2023/05/29 16:51:04;;;;;;;7.63;2.63;;;;;;;20.85;32.50;102294.81;16099308;19;131804;-46
2023/05/29 16:56:26;;;;;;;6.95;2.30;;;;;;;20.85;32.62;102304.00;16100734;19;130817;-45
2023/05/29 17:01:48;;;;;;;5.18;1.95;;;;;;;20.86;32.62;102290.94;16099330;19;130148;-42
2023/05/29 17:07:10;;;;;;;8.48;2.30;;;;;;;20.87;32.29;102298.19;16090085;19;131396;-42
2023/05/29 17:12:31;;;;;;;9.90;2.13;;;;;;;20.87;32.46;102304.63;16097347;19;131199;-46
2023/05/29 17:17:54;;;;;;;9.27;2.40;;;;;;;20.88;32.15;102300.75;16098444;19;130135;-43
2023/05/29 17:23:16;;;;;;;12.73;2.45;;;;;;;20.89;32.28;102296.91;16096018;19;130521;-44
2023/05/29 17:28:38;;;;;;;7.07;2.45;;;;;;;20.90;32.48;102298.59;16097607;19;129600;-44
2023/05/29 17:34:00;;;;;;;11.65;2.30;;;;;;;20.90;32.34;102304.16;16098988;19;130484;-45
2023/05/29 17:39:22;;;;;;;8.80;1.95;;;;;;;20.93;32.11;102307.56;16095476;19;129903;-46
2023/05/29 17:44:44;;;;;;;4.25;1.75;;;;;;;20.93;32.10;102313.13;16094201;19;129764;-45
2023/05/29 17:50:06;;;;;;;7.25;2.10;;;;;;;20.93;32.16;102307.56;16094992;19;129932;-44
2023/05/29 17:55:28;;;;;;;5.85;1.80;;;;;;;20.93;31.85;102307.56;16096447;19;130407;-47
2023/05/29 18:00:51;;;;;;;7.70;2.00;;;;;;;20.93;31.65;102299.22;16095304;19;134245;-47
2023/05/29 18:06:13;;;;;;;8.23;2.20;;;;;;;20.93;32.03;102299.22;16091727;19;131721;-47
2023/05/29 18:11:35;;;;;;;10.45;2.30;;;;;;;20.89;31.78;102294.13;16084633;19;130893;-47
2023/05/29 18:16:57;;;;;;;9.15;2.10;;;;;;;20.88;31.57;102297.13;16092109;19;130113;-46
2023/05/29 18:22:19;;;;;;;20.40;2.67;;;;;;;20.86;31.76;102302.06;16093115;19;130247;-44
2023/05/29 18:27:40;;;;;;;17.90;2.10;;;;;;;20.84;31.88;102305.06;16091186;19;131441;-43
2023/05/29 18:33:04;;;;;;;8.25;1.90;;;;;;;20.82;31.62;102311.94;16087616;19;130294;-44
2023/05/29 18:38:26;;;;;;;11.18;2.47;;;;;;;20.79;32.04;102307.69;16096404;19;130288;-42
2023/05/29 18:43:49;;;;;;;13.25;2.25;;;;;;;20.77;31.95;102312.63;16090875;19;129654;-42
2023/05/29 18:49:11;;;;;;;6.20;2.15;;;;;;;20.73;32.20;102315.00;16091706;19;129648;-46
2023/05/29 18:54:33;;;;;;;8.60;2.60;;;;;;;20.72;31.92;102315.19;16091053;19;131445;-45
2023/05/29 18:59:55;;;;;;;7.70;2.22;;;;;;;20.69;31.86;102310.94;16091676;19;129877;-46
2023/05/29 19:05:20;;;;;;;8.85;1.92;;;;;;;20.68;31.67;102316.72;16090319;19;129898;-45
2023/05/29 19:10:42;;;;;;;7.50;2.15;;;;;;;20.65;32.08;102318.03;16087353;19;130434;-44
2023/05/29 19:16:04;;;;;;;7.53;1.92;;;;;;;20.64;32.09;102323.84;16095107;19;129444;-44
2023/05/29 19:21:27;;;;;;;8.63;2.28;;;;;;;20.60;32.31;102327.06;16107387;19;129748;-45
2023/05/29 19:26:49;;;;;;;7.55;2.25;;;;;;;20.59;32.31;102335.63;16104265;19;130785;-45
2023/05/29 19:32:11;;;;;;;8.02;2.03;;;;;;;20.56;32.33;102336.91;16100654;19;130028;-45
2023/05/29 19:37:33;;;;;;;9.43;2.45;;;;;;;20.54;32.22;102344.66;16102398;19;130191;-46
2023/05/29 19:42:55;;;;;;;7.40;1.90;;;;;;;20.52;32.25;102345.94;16100870;19;130560;-44
2023/05/29 19:48:17;;;;;;;7.97;1.95;;;;;;;20.49;32.18;102352.81;16098545;19;130612;-45
2023/05/29 19:53:40;;;;;;;6.72;2.20;;;;;;;20.47;32.09;102354.13;16104371;19;129821;-44
2023/05/29 19:59:03;;;;;;;8.68;2.53;;;;;;;20.46;32.29;102356.03;16100951;19;131256;-45
2023/05/29 20:04:25;;;;;;;18.35;2.67;;;;;;;20.43;32.44;102375.97;16100728;19;130039;-43
2023/05/29 20:09:47;;;;;;;7.63;2.20;;;;;;;20.43;32.26;102370.41;16099340;19;131263;-45
2023/05/29 20:15:10;;;;;;;8.02;1.90;;;;;;;20.40;32.41;102377.22;16101797;19;129554;-46
2023/05/29 20:20:32;;;;;;;6.90;2.00;;;;;;;20.38;32.05;102386.88;16100344;19;129925;-47
2023/05/29 20:25:54;;;;;;;9.10;2.40;;;;;;;20.35;31.88;102395.66;16097585;19;130328;-46
2023/05/29 20:31:17;;;;;;;10.73;2.47;;;;;;;20.33;32.04;102401.44;16099183;19;131596;-46
2023/05/29 20:36:39;;;;;;;8.80;2.95;;;;;;;20.29;32.18;102408.50;16096942;19;131559;-45
2023/05/29 20:42:02;;;;;;;6.93;2.15;;;;;;;20.26;32.49;102415.38;16098825;19;130450;-45
2023/05/29 20:47:25;;;;;;;9.32;2.20;;;;;;;20.25;32.11;102402.56;16097559;19;130127;-45
2023/05/29 20:52:46;;;;;;;11.68;2.42;;;;;;;20.23;32.38;102410.25;16096185;19;129950;-46
2023/05/29 20:58:09;;;;;;;9.52;2.30;;;;;;;20.21;32.12;102412.41;16098263;19;131023;-50
2023/05/29 21:03:31;;;;;;;8.07;1.90;;;;;;;20.19;32.61;102403.41;16093002;19;132109;-50
2023/05/29 21:08:53;;;;;;;6.80;2.15;;;;;;;20.18;32.56;102407.31;16097890;19;129558;-48
2023/05/29 21:14:15;;;;;;;6.47;2.13;;;;;;;20.15;32.44;102413.28;16096491;19;131181;-49
2023/05/29 21:19:37;;;;;;;9.95;2.50;;;;;;;20.14;32.18;102411.59;16092986;19;130879;-48
2023/05/29 21:24:59;;;;;;;10.00;2.60;;;;;;;20.13;32.22;102418.22;16096206;19;129680;-50
2023/05/29 21:30:21;;;;;;;11.25;2.08;;;;;;;20.13;32.27;102418.22;16095680;19;129990;-49
2023/05/29 21:35:44;;;;;;;8.55;2.28;;;;;;;20.12;32.66;102424.84;16097140;19;131914;-46
2023/05/29 21:41:06;;;;;;;10.00;2.25;;;;;;;20.11;32.49;102423.13;16095501;19;132939;-50
2023/05/29 21:46:28;;;;;;;7.22;2.25;;;;;;;20.09;32.38;102422.50;16094453;19;130662;-50
2023/05/29 21:51:50;;;;;;;6.85;2.00;;;;;;;20.08;32.60;102424.44;16090360;19;129910;-44
2023/05/29 21:57:15;;;;;;;10.40;2.28;;;;;;;20.09;32.79;102425.28;16093574;19;129959;-47
2023/05/29 22:02:37;;;;;;;10.87;2.57;;;;;;;20.08;32.62;102431.91;16090965;19;130423;-46
2023/05/29 22:07:59;;;;;;;6.68;1.63;;;;;;;20.07;32.40;102427.41;16088906;19;131245;-47
2023/05/29 22:13:21;;;;;;;9.43;2.15;;;;;;;20.05;32.44;102441.53;16092825;19;130867;-51
2023/05/29 22:18:46;;;;;;;8.25;2.03;;;;;;;20.04;32.76;102439.00;16091862;19;131351;-47
2023/05/29 22:24:26;;;;;;;9.85;2.20;;;;;;;20.03;32.80;102443.66;16089259;19;131623;-48
2023/05/29 22:29:47;;;;;;;4.80;1.75;;;;;;;20.02;32.77;102443.91;16064565;19;130603;-52
2023/05/29 22:35:12;;;;;;;4.63;1.60;;;;;;;20.01;32.75;102456.09;16077679;19;129687;-46
2023/05/29 22:40:35;;;;;;;8.77;1.77;;;;;;;19.99;32.77;102471.03;16078061;19;132422;-46
2023/05/29 22:45:57;;;;;;;7.05;1.90;;;;;;;19.98;32.86;102463.75;16082576;19;130539;-45
2023/05/29 22:51:19;;;;;;;5.65;1.70;;;;;;;19.97;32.64;102462.03;16097995;19;130417;-43
2023/05/29 22:56:41;;;;;;;8.23;2.33;;;;;;;19.96;32.65;102465.88;16103429;19;130425;-51
2023/05/29 23:02:03;;;;;;;5.68;1.65;;;;;;;19.96;32.47;102463.09;16104936;19;129589;-51
2023/05/29 23:07:25;;;;;;;7.45;2.00;;;;;;;19.95;32.58;102474.44;16104862;19;129730;-47
2023/05/29 23:12:47;;;;;;;8.15;1.85;;;;;;;19.96;32.79;102477.00;16103504;19;132072;-43
2023/05/29 23:18:09;;;;;;;6.90;1.73;;;;;;;19.96;32.54;102482.56;16104303;19;131311;-51
2023/05/29 23:23:32;;;;;;;7.32;2.00;;;;;;;19.95;32.92;102493.88;16103941;19;130952;-49
2023/05/29 23:28:54;;;;;;;5.53;1.60;;;;;;;19.94;32.83;102490.25;16103812;19;130738;-49
2023/05/29 23:34:16;;;;;;;8.02;1.98;;;;;;;19.93;32.88;102494.13;16103287;19;131784;-50
2023/05/29 23:39:38;;;;;;;5.10;1.73;;;;;;;19.92;32.60;102503.53;16104279;19;129373;-50
2023/05/29 23:45:00;;;;;;;6.28;1.75;;;;;;;19.90;33.07;102505.66;16098071;19;130970;-49
2023/05/29 23:50:22;;;;;;;8.43;1.52;;;;;;;19.89;32.56;102509.50;16097203;19;130223;-48
2023/05/29 23:55:44;;;;;;;5.90;1.70;;;;;;;19.89;33.25;102515.06;16094942;19;130095;-50
